Terminal Aerodrome Forecast
Issued by NWS Wilmington, OH

Current Version | Previous Version | Graphics & Text | Print | Product List | Glossary On
Versions: 1 2 3 4 5 6 7 8 9 10 11 12 13 14 15 16 17 18 19 20 21 22 23 24 25 26 27 28 29 30 31
016
FTUS41 KILN 261037 AAA
TAFDAY
TAF AMD
KDAY 261037Z 2611/2706 23011KT P6SM SCT060
      TEMPO 2611/2612 5SM -TSRA BKN050CB
     FM261600 26012KT P6SM BKN050
     FM262000 29010KT P6SM VCTS BKN040CB
     FM270000 03008KT P6SM VCSH SCT035 BKN100
     FM270400 06009KT P6SM BKN022=

USA.gov is the U.S. government's official web portal to all federal, state and local government web resources and services.